Main page
METAR-TAF:

METAR-TAF

Airports :

San Sebastián Airport

San Sebastián, Spain

latitude: 43-21N, longitude: 001-48W, elevation: 5 m

Current weather observation

The report was made 15 minutes ago, at 03:30 UTC
Wind 5 kt from the South, varying between South/Southeast and Southwest
Temperature 20°C
Humidity 83%
Pressure 1011 hPa
Visibility 10 km or more
Broken clouds at a height of 5400 ft

METAR: LESO 150330Z 18005KT 150V220 9999 BKN054 20/17 Q1011

Time: 05:45 (03:45 UTC)

Forecast

The report was made 4 hours and 45 minutes ago, at 23:00 UTC
Forecast valid from 15 at 00 UTC to 15 at 24 UTC
Wind 6 kt from the Southwest
Visibility 10 km or more
Scattered clouds at a height of 2000 ft
Broken clouds at a height of 4000 ft
Probability 40% :
Temporary
from 15 at 11 UTC to 15 at 17 UTC
Wind 10 kt from the West/Northwest

TAF: LESO 142300Z 1500/1524 23006KT 9999 SCT020 BKN040 TX26/1514Z TN19/1502Z PROB40 TEMPO 1511/1517 29010KT

Weather observations and forecasts of more than 4000 airports (METAR and TAF reports).

The available stations are represented by yellow and red dots on the map.

Hover mouse over dot to see the name of the station.

Then click to see weather observations and forecasts.

To change the map : click on the green buttons with a black cross to zoom in, on the green button with a dash to zoom out, or on the green arrows for adjacent maps.


METAR-TAF: